Time;durP1;ratioP1;P1;durP2;ratioP2;P2;SDS_P1;SDS_P2;PMS_P1;PMS_P2;Temp;Humidity;BMP_temperature;BMP_pressure;BME280_temperature;BME280_humidity;BME280_pressure;Samples;Min_cycle;Max_cycle;Signal;HPM_P1;HPM_P2
2023/03/12 00:00:46;;;;;;;;;;;24.70;77.80;;;;;;5078380;28;19999;-71
2023/03/12 00:03:13;;;;;;;;;;;24.80;78.30;;;;;;5077922;28;19999;-71
2023/03/12 00:05:40;;;;;;;;;;;24.80;78.30;;;;;;5080086;28;20377;-72
2023/03/12 00:08:06;;;;;;;;;;;24.80;78.50;;;;;;5079890;28;20287;-71
2023/03/12 00:10:33;;;;;;;;;;;25.00;77.90;;;;;;5080472;28;20005;-73
2023/03/12 00:13:00;;;;;;;;;;;25.00;77.10;;;;;;5079120;28;19971;-72
2023/03/12 00:15:27;;;;;;;;;;;24.90;77.70;;;;;;5080468;28;19956;-72
2023/03/12 00:17:54;;;;;;;;;;;24.90;78.00;;;;;;5078138;28;19935;-70
2023/03/12 00:20:22;;;;;;;;;;;25.00;77.30;;;;;;5072016;28;19913;-78
2023/03/12 00:22:49;;;;;;;;;;;25.00;78.10;;;;;;5073984;28;19923;-73
2023/03/12 00:25:16;;;;;;;;;;;25.00;77.20;;;;;;5067291;28;19966;-73
2023/03/12 00:27:43;;;;;;;;;;;25.00;77.70;;;;;;5057413;28;20000;-75
2023/03/12 00:30:10;;;;;;;;;;;25.00;77.50;;;;;;5056707;28;19917;-71
2023/03/12 00:32:37;;;;;;;;;;;24.90;77.70;;;;;;5060851;28;19984;-73
2023/03/12 00:35:04;;;;;;;;;;;24.90;77.80;;;;;;5057059;28;19920;-77
2023/03/12 00:37:32;;;;;;;;;;;25.00;77.30;;;;;;5054582;28;19917;-74
2023/03/12 00:40:00;;;;;;;;;;;25.00;78.20;;;;;;5056677;28;19917;-73
2023/03/12 00:42:27;;;;;;;;;;;24.90;78.00;;;;;;5068287;28;19913;-73
2023/03/12 00:44:54;;;;;;;;;;;24.90;78.10;;;;;;5059756;28;19913;-74
2023/03/12 00:47:20;;;;;;;;;;;24.80;77.40;;;;;;5055571;28;19913;-73
2023/03/12 00:49:47;;;;;;;;;;;24.90;77.80;;;;;;5056475;28;20281;-75
2023/03/12 00:52:14;;;;;;;;;;;24.90;78.30;;;;;;5056155;28;20401;-75
2023/03/12 00:54:41;;;;;;;;;;;25.10;78.00;;;;;;5064307;28;19960;-72
2023/03/12 00:57:07;;;;;;;;;;;25.00;77.10;;;;;;5057925;28;19915;-73
2023/03/12 00:59:34;;;;;;;;;;;24.90;77.40;;;;;;5056441;28;20298;-73
2023/03/12 01:02:01;;;;;;;;;;;24.90;78.20;;;;;;5059710;28;19912;-74
2023/03/12 01:04:28;;;;;;;;;;;25.00;77.00;;;;;;5055980;28;19963;-74
2023/03/12 01:06:54;;;;;;;;;;;25.00;77.10;;;;;;5055757;28;19913;-73
2023/03/12 01:09:21;;;;;;;;;;;24.90;77.70;;;;;;5056028;28;20318;-73
2023/03/12 01:11:48;;;;;;;;;;;24.80;77.20;;;;;;5055142;28;19959;-72
2023/03/12 01:14:14;;;;;;;;;;;24.70;78.00;;;;;;5059609;28;20006;-72
2023/03/12 01:16:41;;;;;;;;;;;24.70;78.00;;;;;;5059326;28;19914;-74
2023/03/12 01:19:08;;;;;;;;;;;24.80;78.40;;;;;;5073130;28;19915;-73
2023/03/12 01:21:34;;;;;;;;;;;24.80;77.40;;;;;;5072193;28;19916;-73
2023/03/12 01:24:01;;;;;;;;;;;24.70;78.20;;;;;;5073558;28;20399;-72
2023/03/12 01:26:28;;;;;;;;;;;24.70;77.90;;;;;;5073685;28;19912;-76
2023/03/12 01:28:55;;;;;;;;;;;24.80;78.10;;;;;;5072859;28;19915;-75
2023/03/12 01:31:22;;;;;;;;;;;24.90;77.50;;;;;;5070571;28;19962;-73
2023/03/12 01:33:51;;;;;;;;;;;24.90;77.70;;;;;;5072536;28;19916;-73
2023/03/12 01:36:25;;;;;;;;;;;24.80;77.40;;;;;;5068298;28;20287;-73
2023/03/12 01:38:52;;;;;;;;;;;24.80;77.70;;;;;;5072379;28;20057;-74
2023/03/12 01:41:19;;;;;;;;;;;24.80;77.70;;;;;;5070820;28;19948;-73
2023/03/12 01:43:46;;;;;;;;;;;24.80;77.30;;;;;;5069451;28;20371;-73
2023/03/12 01:46:25;;;;;;;;;;;24.80;76.80;;;;;;5073387;28;19916;-73
2023/03/12 01:49:08;;;;;;;;;;;24.80;77.30;;;;;;5070437;28;19916;-73
2023/03/12 01:51:58;;;;;;;;;;;24.70;77.50;;;;;;5067100;28;19913;-76
2023/03/12 01:54:25;;;;;;;;;;;24.80;77.10;;;;;;5049525;28;19919;-74
2023/03/12 01:56:51;;;;;;;;;;;24.80;77.20;;;;;;5073157;28;20300;-74
2023/03/12 01:59:20;;;;;;;;;;;24.70;77.10;;;;;;5068946;28;19917;-75
2023/03/12 02:01:47;;;;;;;;;;;24.70;77.30;;;;;;5069313;28;19924;-73
2023/03/12 02:04:14;;;;;;;;;;;24.80;77.40;;;;;;5067760;28;20359;-73
2023/03/12 02:06:47;;;;;;;;;;;24.90;77.50;;;;;;5071089;28;19920;-74
2023/03/12 02:09:14;;;;;;;;;;;24.90;77.20;;;;;;5069565;28;19913;-75
2023/03/12 02:11:40;;;;;;;;;;;24.90;76.60;;;;;;5066801;28;19920;-73
2023/03/12 02:14:08;;;;;;;;;;;25.00;76.20;;;;;;5072929;28;19931;-77
2023/03/12 02:16:34;;;;;;;;;;;25.00;76.80;;;;;;5059450;28;19974;-75
2023/03/12 02:19:01;;;;;;;;;;;25.00;76.40;;;;;;5071618;28;20283;-74
2023/03/12 02:21:29;;;;;;;;;;;24.90;76.50;;;;;;5071061;28;19920;-75
2023/03/12 02:24:13;;;;;;;;;;;25.00;77.30;;;;;;5068041;28;19908;-76
2023/03/12 02:26:40;;;;;;;;;;;25.00;76.10;;;;;;5067355;28;20014;-74
2023/03/12 02:29:08;;;;;;;;;;;25.00;76.30;;;;;;5071046;28;20386;-74
2023/03/12 02:31:39;;;;;;;;;;;25.00;76.70;;;;;;5072418;28;20000;-74
2023/03/12 02:34:07;;;;;;;;;;;24.90;76.90;;;;;;5049318;28;19939;-74
2023/03/12 02:36:34;;;;;;;;;;;24.90;76.60;;;;;;5066265;28;19920;-74
2023/03/12 02:39:01;;;;;;;;;;;25.00;77.00;;;;;;5066568;28;19948;-74
2023/03/12 02:41:34;;;;;;;;;;;25.00;76.70;;;;;;5061888;28;19913;-73
2023/03/12 02:44:00;;;;;;;;;;;25.10;76.30;;;;;;5063096;28;20277;-75
2023/03/12 02:46:27;;;;;;;;;;;25.10;76.00;;;;;;5066779;28;19913;-74
2023/03/12 02:48:54;;;;;;;;;;;25.20;75.00;;;;;;5069562;28;19913;-74
2023/03/12 02:51:21;;;;;;;;;;;25.20;75.30;;;;;;5066680;28;20705;-76
2023/03/12 02:53:53;;;;;;;;;;;25.20;76.00;;;;;;5070580;28;19913;-73
2023/03/12 02:56:23;;;;;;;;;;;25.20;75.00;;;;;;5065051;28;20003;-74
2023/03/12 02:58:50;;;;;;;;;;;25.20;74.90;;;;;;5057422;28;19918;-73
2023/03/12 03:01:16;;;;;;;;;;;25.20;75.90;;;;;;5062552;28;19912;-75
2023/03/12 03:03:43;;;;;;;;;;;25.30;75.90;;;;;;5062211;28;19917;-75
2023/03/12 03:06:10;;;;;;;;;;;25.30;76.10;;;;;;5055360;28;19975;-73
2023/03/12 03:08:37;;;;;;;;;;;25.30;75.70;;;;;;5061133;28;19958;-74
2023/03/12 03:11:03;;;;;;;;;;;25.20;75.40;;;;;;5063108;28;19916;-78
2023/03/12 03:13:30;;;;;;;;;;;25.20;75.80;;;;;;5057337;28;20019;-74
2023/03/12 03:15:58;;;;;;;;;;;25.10;75.90;;;;;;5059295;28;20359;-75
2023/03/12 03:18:25;;;;;;;;;;;25.10;75.80;;;;;;5068753;28;19913;-74
2023/03/12 03:20:58;;;;;;;;;;;25.20;76.00;;;;;;5064105;28;19917;-74
2023/03/12 03:23:25;;;;;;;;;;;25.20;75.30;;;;;;5059413;28;20536;-73
2023/03/12 03:25:52;;;;;;;;;;;25.20;76.10;;;;;;5064255;28;19931;-73
2023/03/12 03:28:22;;;;;;;;;;;25.20;75.60;;;;;;5056921;28;20287;-73
2023/03/12 03:30:51;;;;;;;;;;;25.30;75.70;;;;;;5067450;28;19919;-74
2023/03/12 03:33:18;;;;;;;;;;;25.30;75.30;;;;;;5051655;28;20285;-74
2023/03/12 03:35:44;;;;;;;;;;;25.40;76.00;;;;;;5062430;28;19916;-74
2023/03/12 03:38:11;;;;;;;;;;;25.30;77.00;;;;;;5063847;28;19909;-73
2023/03/12 03:40:38;;;;;;;;;;;25.30;77.40;;;;;;5061604;28;20391;-74
2023/03/12 03:43:05;;;;;;;;;;;25.30;77.60;;;;;;5060490;28;20370;-75
2023/03/12 03:45:31;;;;;;;;;;;25.30;77.80;;;;;;5055882;28;19995;-73
2023/03/12 03:47:58;;;;;;;;;;;25.30;77.80;;;;;;5058567;28;20409;-74
2023/03/12 03:50:25;;;;;;;;;;;25.30;77.80;;;;;;5064761;28;19935;-73
2023/03/12 03:52:52;;;;;;;;;;;25.20;76.90;;;;;;5057775;28;19921;-71
2023/03/12 03:55:18;;;;;;;;;;;25.10;75.30;;;;;;5064962;28;19913;-71
2023/03/12 03:57:45;;;;;;;;;;;25.10;75.60;;;;;;5056250;28;19909;-71
2023/03/12 04:00:12;;;;;;;;;;;25.10;75.60;;;;;;5069653;28;20013;-71
2023/03/12 04:02:39;;;;;;;;;;;25.20;75.30;;;;;;5061762;28;19916;-71
2023/03/12 04:05:06;;;;;;;;;;;25.20;74.30;;;;;;5059693;28;20268;-71
2023/03/12 04:07:33;;;;;;;;;;;25.20;75.20;;;;;;5063585;28;19932;-71
2023/03/12 04:09:59;;;;;;;;;;;25.20;74.90;;;;;;5064341;28;19963;-71
2023/03/12 04:12:26;;;;;;;;;;;25.30;75.00;;;;;;5065010;28;19920;-71
2023/03/12 04:14:53;;;;;;;;;;;25.30;73.80;;;;;;5058223;28;19944;-71
2023/03/12 04:17:20;;;;;;;;;;;25.30;73.30;;;;;;5068592;28;19926;-71
2023/03/12 04:19:46;;;;;;;;;;;25.20;73.80;;;;;;5061325;28;19913;-71
2023/03/12 11:29:53;;;;;;;;;;;23.10;71.60;;;;;;5042250;28;20042;-74
2023/03/12 11:32:20;;;;;;;;;;;23.00;71.60;;;;;;5032450;28;19924;-74
2023/03/12 11:34:48;;;;;;;;;;;23.10;71.50;;;;;;5046735;28;20075;-74
2023/03/12 11:37:18;;;;;;;;;;;23.10;71.70;;;;;;5024401;28;19979;-74
2023/03/12 11:39:47;;;;;;;;;;;23.10;71.80;;;;;;5047071;28;19916;-74
2023/03/12 11:42:20;;;;;;;;;;;23.10;72.10;;;;;;5045163;28;19917;-73
2023/03/12 11:44:56;;;;;;;;;;;23.10;71.70;;;;;;5040064;28;19913;-74
2023/03/12 11:47:26;;;;;;;;;;;23.10;72.20;;;;;;5026850;28;21143;-74
2023/03/12 11:50:02;;;;;;;;;;;23.10;72.50;;;;;;5047142;28;20405;-74
2023/03/12 11:52:32;;;;;;;;;;;23.10;71.90;;;;;;5033026;28;19956;-74
2023/03/12 11:55:13;;;;;;;;;;;23.00;71.90;;;;;;5046374;28;20019;-74
2023/03/12 11:57:39;;;;;;;;;;;23.00;71.80;;;;;;5031422;28;20290;-74
2023/03/12 12:00:12;;;;;;;;;;;23.00;72.40;;;;;;5050336;28;19917;-75
2023/03/12 12:02:57;;;;;;;;;;;23.00;72.20;;;;;;5051852;28;19916;-74
2023/03/12 12:05:38;;;;;;;;;;;23.10;72.50;;;;;;5050182;28;19913;-74
2023/03/12 12:08:07;;;;;;;;;;;23.00;73.00;;;;;;5048217;28;19920;-74
2023/03/12 12:10:44;;;;;;;;;;;23.00;73.10;;;;;;5049793;28;19916;-74
2023/03/12 12:13:15;;;;;;;;;;;23.00;73.30;;;;;;5016213;28;20401;-74
2023/03/12 12:15:55;;;;;;;;;;;23.00;73.50;;;;;;5047611;28;19971;-74
2023/03/12 12:18:22;;;;;;;;;;;23.00;73.40;;;;;;5049338;28;19959;-74
2023/03/12 12:20:55;;;;;;;;;;;23.00;73.20;;;;;;5052989;28;19946;-74
2023/03/12 12:23:24;;;;;;;;;;;23.00;73.30;;;;;;5017979;28;20259;-74
2023/03/12 12:26:05;;;;;;;;;;;23.00;73.10;;;;;;5049682;28;19923;-74
2023/03/12 12:28:35;;;;;;;;;;;22.90;72.80;;;;;;5050540;28;19925;-74
2023/03/12 12:31:08;;;;;;;;;;;22.90;72.40;;;;;;5036496;28;19919;-74
2023/03/12 12:33:50;;;;;;;;;;;22.90;72.90;;;;;;5052803;28;19921;-74
2023/03/12 12:36:17;;;;;;;;;;;23.00;73.40;;;;;;5048757;28;19913;-74
2023/03/12 12:38:46;;;;;;;;;;;23.00;73.20;;;;;;5054196;28;20007;-74
2023/03/12 12:41:14;;;;;;;;;;;23.00;73.10;;;;;;5054771;28;19959;-74
2023/03/12 12:43:41;;;;;;;;;;;23.00;73.50;;;;;;5032960;28;19917;-74
2023/03/12 12:46:11;;;;;;;;;;;23.00;73.30;;;;;;5036850;28;19905;-74
2023/03/12 12:48:37;;;;;;;;;;;23.00;73.10;;;;;;5054328;28;20350;-74
2023/03/12 12:51:04;;;;;;;;;;;22.90;73.00;;;;;;5054634;28;19992;-75
2023/03/12 12:53:31;;;;;;;;;;;23.00;73.20;;;;;;5050173;28;19971;-75
2023/03/12 12:56:18;;;;;;;;;;;23.00;73.40;;;;;;5053616;28;19917;-74
2023/03/12 12:58:50;;;;;;;;;;;23.00;73.40;;;;;;5036615;28;19948;-74
2023/03/12 13:01:17;;;;;;;;;;;23.00;72.70;;;;;;5054573;28;19916;-74
2023/03/12 13:03:44;;;;;;;;;;;23.00;72.40;;;;;;5035342;28;20278;-74
2023/03/12 13:06:11;;;;;;;;;;;23.00;72.40;;;;;;5036406;28;20004;-74
2023/03/12 13:08:43;;;;;;;;;;;23.00;72.30;;;;;;5054497;28;19909;-74
2023/03/12 13:11:16;;;;;;;;;;;23.00;72.10;;;;;;5052118;28;19909;-74
2023/03/12 13:13:43;;;;;;;;;;;23.00;72.50;;;;;;5042843;28;19932;-74
2023/03/12 13:16:21;;;;;;;;;;;22.90;72.70;;;;;;5035343;28;20383;-74
2023/03/12 13:18:58;;;;;;;;;;;23.00;72.50;;;;;;5023963;28;19909;-75
2023/03/12 13:21:35;;;;;;;;;;;22.90;72.50;;;;;;5030326;28;19955;-73
2023/03/12 13:24:14;;;;;;;;;;;22.90;71.80;;;;;;5024517;28;19917;-74
2023/03/12 13:26:50;;;;;;;;;;;22.90;71.80;;;;;;5051347;28;20008;-74
2023/03/12 13:29:23;;;;;;;;;;;22.90;71.20;;;;;;5042982;28;19995;-74
2023/03/12 13:31:49;;;;;;;;;;;22.90;71.20;;;;;;5049302;28;19936;-74
2023/03/12 13:34:19;;;;;;;;;;;22.90;70.90;;;;;;5047227;28;20265;-75
2023/03/12 13:36:46;;;;;;;;;;;22.90;70.60;;;;;;5050818;28;20283;-74
2023/03/12 13:39:16;;;;;;;;;;;22.80;70.60;;;;;;5034715;28;19913;-74
2023/03/12 13:41:49;;;;;;;;;;;22.90;70.50;;;;;;5052643;28;20318;-74
2023/03/12 13:44:28;;;;;;;;;;;22.80;71.10;;;;;;5038386;28;20686;-74
2023/03/12 13:47:01;;;;;;;;;;;22.80;71.30;;;;;;5053589;28;20012;-74
2023/03/12 13:49:35;;;;;;;;;;;22.80;71.40;;;;;;5051394;28;20260;-75
2023/03/12 13:52:11;;;;;;;;;;;22.80;71.30;;;;;;5051476;28;20501;-74
2023/03/12 13:54:40;;;;;;;;;;;22.80;71.90;;;;;;5024681;28;19913;-74
2023/03/12 13:57:11;;;;;;;;;;;22.80;71.70;;;;;;5029858;28;19909;-74
2023/03/12 13:59:42;;;;;;;;;;;22.80;72.10;;;;;;5051531;28;19920;-74
2023/03/12 14:02:15;;;;;;;;;;;22.80;72.10;;;;;;5051090;28;20283;-74
2023/03/12 14:04:42;;;;;;;;;;;22.80;72.50;;;;;;5035174;28;19913;-74
2023/03/12 14:07:27;;;;;;;;;;;22.80;72.20;;;;;;5031487;28;19913;-74
2023/03/12 14:10:00;;;;;;;;;;;22.80;72.10;;;;;;5041616;28;19952;-74
2023/03/12 14:12:42;;;;;;;;;;;22.80;72.20;;;;;;5031473;28;19920;-74
2023/03/12 14:15:15;;;;;;;;;;;22.80;72.10;;;;;;5031189;28;19920;-73
2023/03/12 14:17:42;;;;;;;;;;;22.70;72.40;;;;;;5053154;28;19917;-74
2023/03/12 14:20:18;;;;;;;;;;;22.80;72.50;;;;;;5032240;28;20394;-74
2023/03/12 14:22:48;;;;;;;;;;;22.80;72.60;;;;;;5035302;28;20411;-74
2023/03/12 14:25:33;;;;;;;;;;;22.70;72.30;;;;;;5052977;28;19916;-74
2023/03/12 14:28:01;;;;;;;;;;;22.70;72.80;;;;;;5051150;28;19921;-73
2023/03/12 14:30:33;;;;;;;;;;;22.80;72.30;;;;;;5049567;28;20003;-73
2023/03/12 14:32:59;;;;;;;;;;;22.80;72.20;;;;;;5034065;28;19927;-73
2023/03/12 14:35:28;;;;;;;;;;;22.80;72.40;;;;;;5018841;28;19912;-73
2023/03/12 14:37:55;;;;;;;;;;;22.80;72.40;;;;;;5033751;28;19920;-73
2023/03/12 14:40:23;;;;;;;;;;;22.70;72.20;;;;;;5052608;28;19916;-73
2023/03/12 14:42:49;;;;;;;;;;;22.70;72.20;;;;;;5013496;28;19935;-74
2023/03/12 14:45:17;;;;;;;;;;;22.80;72.50;;;;;;5047469;28;20272;-74
2023/03/12 14:47:45;;;;;;;;;;;22.80;72.70;;;;;;5050230;28;19912;-74
2023/03/12 14:50:24;;;;;;;;;;;22.80;72.70;;;;;;5048156;28;19912;-74
2023/03/12 14:52:51;;;;;;;;;;;22.80;72.90;;;;;;5039938;28;19986;-74
2023/03/12 14:55:22;;;;;;;;;;;22.80;73.30;;;;;;5034538;28;19913;-74
2023/03/12 14:57:48;;;;;;;;;;;22.70;73.10;;;;;;5044923;28;19979;-74
2023/03/12 15:00:23;;;;;;;;;;;22.70;73.20;;;;;;5051282;28;19917;-74
2023/03/12 15:02:50;;;;;;;;;;;22.80;73.20;;;;;;5052397;28;19909;-74
2023/03/12 15:05:17;;;;;;;;;;;22.80;73.20;;;;;;5034582;28;19909;-74
2023/03/12 15:07:44;;;;;;;;;;;22.80;73.50;;;;;;5021998;28;19967;-74
2023/03/12 15:10:24;;;;;;;;;;;22.70;73.60;;;;;;5034328;28;19920;-74
2023/03/12 15:12:57;;;;;;;;;;;22.70;73.80;;;;;;5034237;28;19947;-74
2023/03/12 15:15:34;;;;;;;;;;;22.80;73.50;;;;;;5051957;28;20355;-73
2023/03/12 15:18:02;;;;;;;;;;;22.80;73.50;;;;;;5049456;28;19995;-73
2023/03/12 15:20:29;;;;;;;;;;;22.80;73.60;;;;;;5026423;28;19980;-73
2023/03/12 15:22:56;;;;;;;;;;;22.80;73.70;;;;;;5049937;28;19908;-73
2023/03/12 15:25:23;;;;;;;;;;;22.80;73.40;;;;;;5019516;28;20295;-73
2023/03/12 15:28:10;;;;;;;;;;;22.80;73.50;;;;;;5044100;28;19928;-73
2023/03/12 15:30:37;;;;;;;;;;;22.80;73.30;;;;;;5024846;28;20360;-73
2023/03/12 15:33:04;;;;;;;;;;;22.70;73.00;;;;;;5050357;28;19917;-73
2023/03/12 15:35:31;;;;;;;;;;;22.70;73.00;;;;;;5049552;28;19925;-73
2023/03/12 15:37:57;;;;;;;;;;;22.70;72.70;;;;;;5050575;28;19917;-73
2023/03/12 15:40:25;;;;;;;;;;;22.70;73.00;;;;;;5031543;28;19963;-73
2023/03/12 15:42:56;;;;;;;;;;;22.70;73.10;;;;;;5033075;28;19909;-74
2023/03/12 15:45:22;;;;;;;;;;;22.70;73.30;;;;;;5030611;28;19917;-74
2023/03/12 15:47:49;;;;;;;;;;;22.70;72.60;;;;;;5041424;28;20394;-73
2023/03/12 15:50:19;;;;;;;;;;;22.70;73.00;;;;;;5064388;23;20375;-69
2023/03/12 15:52:58;;;;;;;;;;;22.70;72.70;;;;;;5063636;28;19950;-69
2023/03/12 15:55:27;;;;;;;;;;;22.70;72.60;;;;;;5073488;28;19909;-69
2023/03/12 15:57:54;;;;;;;;;;;22.70;72.70;;;;;;5059664;28;19919;-69
2023/03/12 16:00:22;;;;;;;;;;;22.70;72.60;;;;;;5065229;28;19916;-69
2023/03/12 16:02:58;;;;;;;;;;;22.70;72.90;;;;;;5063518;28;19950;-69
2023/03/12 16:05:26;;;;;;;;;;;22.70;73.20;;;;;;5063367;28;19919;-69
2023/03/12 16:07:53;;;;;;;;;;;22.70;73.40;;;;;;5074025;28;20053;-69
2023/03/12 16:10:20;;;;;;;;;;;22.70;73.30;;;;;;5074119;28;19909;-69
2023/03/12 16:12:47;;;;;;;;;;;22.60;73.50;;;;;;5063340;28;19999;-69
2023/03/12 16:15:18;;;;;;;;;;;22.60;73.60;;;;;;5074258;28;19908;-69
2023/03/12 16:17:44;;;;;;;;;;;22.70;73.70;;;;;;5060405;28;19913;-69
2023/03/12 16:20:12;;;;;;;;;;;22.70;73.60;;;;;;5060202;28;20256;-69
2023/03/12 16:22:39;;;;;;;;;;;22.70;73.50;;;;;;5072156;28;19916;-69
2023/03/12 16:25:07;;;;;;;;;;;22.70;73.70;;;;;;5074963;28;20397;-69
2023/03/12 16:27:38;;;;;;;;;;;22.70;73.60;;;;;;5073066;28;20007;-69
2023/03/12 16:30:12;;;;;;;;;;;22.70;73.90;;;;;;5061959;28;19920;-69
2023/03/12 16:32:38;;;;;;;;;;;22.70;74.00;;;;;;5073766;28;19920;-69
2023/03/12 16:35:09;;;;;;;;;;;22.60;74.40;;;;;;5074849;28;20331;-69
2023/03/12 16:37:35;;;;;;;;;;;22.60;74.70;;;;;;5058731;28;19913;-69
2023/03/12 16:40:03;;;;;;;;;;;22.60;74.80;;;;;;5067692;28;19990;-69
2023/03/12 16:42:29;;;;;;;;;;;22.60;74.50;;;;;;5065531;28;19917;-69
2023/03/12 16:44:56;;;;;;;;;;;22.60;74.40;;;;;;5074831;28;19909;-69
2023/03/12 16:47:23;;;;;;;;;;;22.60;74.40;;;;;;5066568;28;19970;-69
2023/03/12 16:49:50;;;;;;;;;;;22.60;74.20;;;;;;5064136;28;19921;-69
2023/03/12 16:52:17;;;;;;;;;;;22.60;74.30;;;;;;5073322;28;19924;-69
2023/03/12 16:54:44;;;;;;;;;;;22.50;74.70;;;;;;5072613;28;19916;-69
2023/03/12 16:57:31;;;;;;;;;;;22.60;74.30;;;;;;5060182;28;19935;-69
2023/03/12 16:59:57;;;;;;;;;;;22.60;74.50;;;;;;5074101;28;19969;-69
2023/03/12 17:02:24;;;;;;;;;;;22.60;74.60;;;;;;5056246;28;20260;-69
2023/03/12 17:04:51;;;;;;;;;;;22.60;74.80;;;;;;5073053;28;19995;-69
2023/03/12 17:07:18;;;;;;;;;;;22.60;73.90;;;;;;5064431;28;19913;-69
2023/03/12 17:09:45;;;;;;;;;;;22.60;74.10;;;;;;5062625;28;19913;-69
2023/03/12 17:12:40;;;;;;;;;;;22.60;73.90;;;;;;5045527;28;19913;-69
2023/03/12 17:15:12;;;;;;;;;;;22.60;74.20;;;;;;5053690;28;19924;-69
2023/03/12 17:17:38;;;;;;;;;;;22.60;74.30;;;;;;5069760;28;19916;-69
2023/03/12 17:20:07;;;;;;;;;;;22.60;74.20;;;;;;5070709;28;19909;-69
2023/03/12 17:22:33;;;;;;;;;;;22.60;74.40;;;;;;5058385;28;19959;-69
2023/03/12 17:25:00;;;;;;;;;;;22.60;74.60;;;;;;5067009;28;19908;-69
2023/03/12 17:27:27;;;;;;;;;;;22.60;74.70;;;;;;5048163;28;19920;-69
2023/03/12 17:29:53;;;;;;;;;;;22.70;75.00;;;;;;5058976;28;20318;-69
2023/03/12 17:32:20;;;;;;;;;;;22.70;74.20;;;;;;5047211;28;20014;-69
2023/03/12 17:34:47;;;;;;;;;;;22.60;74.00;;;;;;5049115;28;20012;-70
2023/03/12 17:37:13;;;;;;;;;;;22.60;73.90;;;;;;5045445;28;20123;-70
2023/03/12 17:39:40;;;;;;;;;;;22.60;73.90;;;;;;5054562;28;20331;-69
2023/03/12 17:42:07;;;;;;;;;;;22.60;73.60;;;;;;5051067;28;20006;-70
2023/03/12 17:44:35;;;;;;;;;;;22.50;73.90;;;;;;5046835;28;20288;-70
2023/03/12 17:47:02;;;;;;;;;;;22.60;73.40;;;;;;5048195;28;19917;-69
2023/03/12 17:49:29;;;;;;;;;;;22.50;73.50;;;;;;5050454;28;19928;-69
2023/03/12 17:51:56;;;;;;;;;;;22.50;73.20;;;;;;5071891;28;20262;-69
2023/03/12 17:54:22;;;;;;;;;;;22.50;73.50;;;;;;5083971;28;19920;-69
2023/03/12 17:56:49;;;;;;;;;;;22.50;73.60;;;;;;5078586;28;20310;-69
2023/03/12 17:59:17;;;;;;;;;;;22.50;73.60;;;;;;5075901;28;20275;-69
2023/03/12 18:01:43;;;;;;;;;;;22.50;73.90;;;;;;5073880;28;19991;-68
2023/03/12 18:04:10;;;;;;;;;;;22.50;74.10;;;;;;5069127;28;19912;-69
2023/03/12 18:06:37;;;;;;;;;;;22.50;73.90;;;;;;5082127;28;19908;-69
2023/03/12 18:09:03;;;;;;;;;;;22.50;74.10;;;;;;5078240;28;20302;-70
2023/03/12 18:11:30;;;;;;;;;;;22.50;74.50;;;;;;5072778;28;19924;-70
2023/03/12 18:13:57;;;;;;;;;;;22.50;74.30;;;;;;5071672;28;20022;-69
2023/03/12 18:16:23;;;;;;;;;;;22.50;73.80;;;;;;5053074;28;19912;-70
2023/03/12 18:18:50;;;;;;;;;;;22.50;74.10;;;;;;5072503;28;19970;-69
2023/03/12 18:21:17;;;;;;;;;;;22.50;74.20;;;;;;5054306;28;19913;-70
2023/03/12 18:23:44;;;;;;;;;;;22.50;74.10;;;;;;5064663;28;19912;-69
2023/03/12 18:26:11;;;;;;;;;;;22.50;74.30;;;;;;5070234;28;19919;-68
2023/03/12 18:28:38;;;;;;;;;;;22.50;74.30;;;;;;5081571;28;20042;-68
2023/03/12 18:31:05;;;;;;;;;;;22.60;74.20;;;;;;5073783;28;19915;-68
2023/03/12 18:33:31;;;;;;;;;;;22.50;74.30;;;;;;5067290;28;20314;-68
2023/03/12 18:35:58;;;;;;;;;;;22.50;73.70;;;;;;5064435;28;19920;-67
2023/03/12 18:38:25;;;;;;;;;;;22.50;73.90;;;;;;5071422;28;19995;-68
2023/03/12 18:40:52;;;;;;;;;;;22.50;73.90;;;;;;5071438;28;19951;-68
2023/03/12 18:43:19;;;;;;;;;;;22.60;74.30;;;;;;5069318;28;19912;-68
2023/03/12 18:45:45;;;;;;;;;;;22.60;74.20;;;;;;5076379;28;19908;-67
2023/03/12 18:48:12;;;;;;;;;;;22.50;73.70;;;;;;5077651;28;19917;-67
2023/03/12 18:50:39;;;;;;;;;;;22.50;74.10;;;;;;5073808;28;19974;-66
2023/03/12 18:53:06;;;;;;;;;;;22.50;73.70;;;;;;5070231;28;19932;-67
2023/03/12 18:55:32;;;;;;;;;;;22.50;73.90;;;;;;5084715;28;19908;-67
2023/03/12 18:57:59;;;;;;;;;;;22.50;73.60;;;;;;5074848;28;19962;-70
2023/03/12 19:00:26;;;;;;;;;;;22.50;73.30;;;;;;5072999;28;19912;-70
2023/03/12 19:02:53;;;;;;;;;;;22.50;73.50;;;;;;5074612;28;19915;-68
2023/03/12 19:05:19;;;;;;;;;;;22.50;73.40;;;;;;5051539;28;19913;-68
2023/03/12 19:07:46;;;;;;;;;;;22.50;72.80;;;;;;5066263;28;20373;-68
2023/03/12 19:10:13;;;;;;;;;;;22.50;72.70;;;;;;5056554;28;19922;-67
2023/03/12 19:12:40;;;;;;;;;;;22.50;72.30;;;;;;5055298;28;19916;-68
2023/03/12 19:15:07;;;;;;;;;;;22.50;72.50;;;;;;5062997;28;20367;-68
2023/03/12 19:17:33;;;;;;;;;;;22.50;72.50;;;;;;5069960;28;19948;-68
2023/03/12 19:20:00;;;;;;;;;;;22.40;72.70;;;;;;5067797;28;19920;-67
2023/03/12 19:22:27;;;;;;;;;;;22.40;72.60;;;;;;5073711;28;19912;-70
2023/03/12 19:24:54;;;;;;;;;;;22.50;73.30;;;;;;5076677;28;19913;-70
2023/03/12 19:27:20;;;;;;;;;;;22.40;73.10;;;;;;5079808;28;20435;-70
2023/03/12 19:29:47;;;;;;;;;;;22.40;73.30;;;;;;5076347;28;19966;-68
2023/03/12 19:32:14;;;;;;;;;;;22.40;72.60;;;;;;5050827;28;19948;-70
2023/03/12 19:34:40;;;;;;;;;;;22.40;73.10;;;;;;5081851;28;19919;-70
2023/03/12 19:37:07;;;;;;;;;;;22.40;72.50;;;;;;5079535;28;19920;-69
2023/03/12 19:39:34;;;;;;;;;;;22.40;72.90;;;;;;5079688;28;20282;-69
2023/03/12 19:42:01;;;;;;;;;;;22.40;73.20;;;;;;5082468;28;19913;-69
2023/03/12 19:44:27;;;;;;;;;;;22.40;73.30;;;;;;5083972;28;19908;-69
2023/03/12 19:46:54;;;;;;;;;;;22.40;72.80;;;;;;5077341;28;19959;-69
2023/03/12 19:49:21;;;;;;;;;;;22.40;72.80;;;;;;5074728;28;19997;-68
2023/03/12 19:51:48;;;;;;;;;;;22.30;73.10;;;;;;5079909;28;20317;-68
2023/03/12 19:54:14;;;;;;;;;;;22.40;73.30;;;;;;5076178;28;19943;-67
2023/03/12 19:56:41;;;;;;;;;;;22.40;73.30;;;;;;5068131;28;19912;-68
2023/03/12 19:59:08;;;;;;;;;;;22.40;73.30;;;;;;5068925;28;19916;-69
2023/03/12 20:01:36;;;;;;;;;;;22.40;73.60;;;;;;5080683;28;19963;-69
2023/03/12 20:04:07;;;;;;;;;;;22.40;73.70;;;;;;5080932;28;19916;-68
2023/03/12 20:06:37;;;;;;;;;;;22.40;73.60;;;;;;5071887;28;19955;-69
2023/03/12 20:09:04;;;;;;;;;;;22.40;73.20;;;;;;5074090;28;20373;-69
2023/03/12 20:11:37;;;;;;;;;;;22.30;73.00;;;;;;5065257;28;20354;-69
2023/03/12 20:14:04;;;;;;;;;;;22.40;73.30;;;;;;5062499;28;19924;-69
2023/03/12 20:16:30;;;;;;;;;;;22.40;73.10;;;;;;5047234;28;20306;-69
2023/03/12 20:18:57;;;;;;;;;;;22.40;73.20;;;;;;5077824;28;20019;-69
2023/03/12 20:21:24;;;;;;;;;;;22.40;73.60;;;;;;5063968;28;19966;-69
2023/03/12 20:23:51;;;;;;;;;;;22.40;73.50;;;;;;5059056;28;19927;-69
2023/03/12 20:26:17;;;;;;;;;;;22.40;73.80;;;;;;5079843;28;19927;-68
2023/03/12 20:28:44;;;;;;;;;;;22.50;73.10;;;;;;5071045;28;19917;-69
2023/03/12 20:31:12;;;;;;;;;;;22.50;72.70;;;;;;5078356;28;19912;-69
2023/03/12 20:33:38;;;;;;;;;;;22.50;73.00;;;;;;5068031;28;19921;-69
2023/03/12 20:36:09;;;;;;;;;;;22.50;72.90;;;;;;5058573;28;19956;-69
2023/03/12 20:38:36;;;;;;;;;;;22.60;73.10;;;;;;5075497;28;20409;-68
2023/03/12 20:41:03;;;;;;;;;;;22.60;73.50;;;;;;5051360;28;19964;-69
2023/03/12 20:43:29;;;;;;;;;;;22.50;73.60;;;;;;5055297;28;20003;-68
2023/03/12 20:45:56;;;;;;;;;;;22.60;74.00;;;;;;5048755;28;20410;-70
2023/03/12 20:48:23;;;;;;;;;;;22.60;74.40;;;;;;5070737;28;20035;-69
2023/03/12 20:50:49;;;;;;;;;;;22.60;74.40;;;;;;5070233;28;19924;-68
2023/03/12 20:53:16;;;;;;;;;;;22.60;74.20;;;;;;5071727;28;19935;-69
2023/03/12 20:55:43;;;;;;;;;;;22.60;74.60;;;;;;5042299;28;19924;-69
2023/03/12 20:58:10;;;;;;;;;;;22.60;75.00;;;;;;5070579;28;19912;-69
2023/03/12 21:00:36;;;;;;;;;;;22.50;74.50;;;;;;5076165;28;19931;-69
2023/03/12 21:03:03;;;;;;;;;;;22.60;75.10;;;;;;5091672;28;19912;-68
2023/03/12 21:05:30;;;;;;;;;;;22.60;75.80;;;;;;5056562;28;19913;-68
2023/03/12 21:07:57;;;;;;;;;;;22.60;75.90;;;;;;5068261;28;19912;-68
2023/03/12 21:10:24;;;;;;;;;;;22.50;75.30;;;;;;5070985;28;20003;-69
2023/03/12 21:12:50;;;;;;;;;;;22.50;76.90;;;;;;5066160;28;19970;-68
2023/03/12 21:15:17;;;;;;;;;;;22.50;76.20;;;;;;5065416;28;19948;-68
2023/03/12 21:17:44;;;;;;;;;;;22.50;75.90;;;;;;5067627;28;19920;-69
2023/03/12 21:20:17;;;;;;;;;;;22.50;76.60;;;;;;5067995;28;20020;-68
2023/03/12 21:22:45;;;;;;;;;;;22.40;75.50;;;;;;5052682;28;19920;-68
2023/03/12 21:25:12;;;;;;;;;;;22.40;76.40;;;;;;5067871;28;19916;-69
2023/03/12 21:27:39;;;;;;;;;;;22.30;75.90;;;;;;5068179;28;20358;-69
2023/03/12 21:30:06;;;;;;;;;;;22.40;76.50;;;;;;5064373;28;19954;-68
2023/03/12 21:32:33;;;;;;;;;;;22.40;75.90;;;;;;5055068;28;20435;-68